sensor_id;sensor_type;location;lat;lon;timestamp;pressure;altitude;pressure_sealevel;temperature;humidity
77192;BME280;66172;48.526;8.078;2023-07-31T00:00:30;99705.06;;;14.50;84.53
77192;BME280;66172;48.526;8.078;2023-07-31T00:02:56;99713.94;;;14.63;83.84
77192;BME280;66172;48.526;8.078;2023-07-31T00:05:22;99713.81;;;14.56;84.08
77192;BME280;66172;48.526;8.078;2023-07-31T00:07:48;99712.63;;;14.57;84.11
77192;BME280;66172;48.526;8.078;2023-07-31T00:10:13;99711.03;;;14.05;87.03
77192;BME280;66172;48.526;8.078;2023-07-31T00:12:42;99710.34;;;14.08;87.09
77192;BME280;66172;48.526;8.078;2023-07-31T00:15:09;99706.72;;;14.04;87.31
77192;BME280;66172;48.526;8.078;2023-07-31T00:17:36;99712.19;;;14.20;86.16
77192;BME280;66172;48.526;8.078;2023-07-31T00:20:02;99696.50;;;13.70;89.60
77192;BME280;66172;48.526;8.078;2023-07-31T00:22:28;99699.78;;;13.75;89.90
77192;BME280;66172;48.526;8.078;2023-07-31T00:24:56;99713.19;;;13.65;90.06
77192;BME280;66172;48.526;8.078;2023-07-31T00:27:22;99704.00;;;13.73;89.30
77192;BME280;66172;48.526;8.078;2023-07-31T00:29:47;99698.97;;;13.90;88.06
77192;BME280;66172;48.526;8.078;2023-07-31T00:32:13;99696.16;;;14.02;86.85
77192;BME280;66172;48.526;8.078;2023-07-31T00:34:39;99695.44;;;14.06;87.00
77192;BME280;66172;48.526;8.078;2023-07-31T00:37:05;99692.09;;;13.96;87.23
77192;BME280;66172;48.526;8.078;2023-07-31T00:39:33;99683.38;;;13.60;89.52
77192;BME280;66172;48.526;8.078;2023-07-31T00:42:00;99691.56;;;13.91;87.74
77192;BME280;66172;48.526;8.078;2023-07-31T00:44:26;99685.38;;;13.94;87.27
77192;BME280;66172;48.526;8.078;2023-07-31T00:46:52;99686.81;;;14.04;86.76
77192;BME280;66172;48.526;8.078;2023-07-31T00:49:18;99678.59;;;14.04;86.48
77192;BME280;66172;48.526;8.078;2023-07-31T00:51:44;99677.50;;;14.08;85.82
77192;BME280;66172;48.526;8.078;2023-07-31T00:54:10;99672.88;;;13.93;86.70
77192;BME280;66172;48.526;8.078;2023-07-31T00:56:37;99679.03;;;13.90;87.47
77192;BME280;66172;48.526;8.078;2023-07-31T00:59:03;99667.81;;;14.11;85.57
77192;BME280;66172;48.526;8.078;2023-07-31T01:01:29;99664.84;;;13.84;87.12
77192;BME280;66172;48.526;8.078;2023-07-31T01:03:55;99672.84;;;14.09;85.83
77192;BME280;66172;48.526;8.078;2023-07-31T01:06:31;99668.59;;;14.11;85.53
77192;BME280;66172;48.526;8.078;2023-07-31T01:09:21;99661.28;;;14.15;84.93
77192;BME280;66172;48.526;8.078;2023-07-31T01:11:56;99655.28;;;14.10;85.01
77192;BME280;66172;48.526;8.078;2023-07-31T01:14:22;99654.06;;;14.07;85.69
77192;BME280;66172;48.526;8.078;2023-07-31T01:16:48;99664.38;;;13.98;85.61
77192;BME280;66172;48.526;8.078;2023-07-31T01:19:15;99663.63;;;13.82;86.70
77192;BME280;66172;48.526;8.078;2023-07-31T01:27:21;99659.94;;;13.43;89.98
77192;BME280;66172;48.526;8.078;2023-07-31T01:32:42;99653.75;;;13.77;87.33
77192;BME280;66172;48.526;8.078;2023-07-31T01:35:08;99651.28;;;13.88;86.51
77192;BME280;66172;48.526;8.078;2023-07-31T01:37:34;99649.75;;;13.90;86.21
77192;BME280;66172;48.526;8.078;2023-07-31T01:40:00;99642.81;;;13.93;86.24
77192;BME280;66172;48.526;8.078;2023-07-31T01:42:26;99648.53;;;14.04;85.17
77192;BME280;66172;48.526;8.078;2023-07-31T01:44:52;99644.91;;;13.99;85.36
77192;BME280;66172;48.526;8.078;2023-07-31T01:47:18;99649.75;;;13.90;86.02
77192;BME280;66172;48.526;8.078;2023-07-31T01:49:44;99636.25;;;13.97;85.45
77192;BME280;66172;48.526;8.078;2023-07-31T01:52:10;99635.00;;;14.11;84.65
77192;BME280;66172;48.526;8.078;2023-07-31T01:54:36;99623.03;;;13.99;85.70
77192;BME280;66172;48.526;8.078;2023-07-31T01:57:02;99628.69;;;13.91;85.75
77192;BME280;66172;48.526;8.078;2023-07-31T01:59:28;99625.25;;;13.94;85.79
77192;BME280;66172;48.526;8.078;2023-07-31T02:01:54;99618.16;;;14.09;84.63
77192;BME280;66172;48.526;8.078;2023-07-31T02:04:20;99619.72;;;13.75;86.75
77192;BME280;66172;48.526;8.078;2023-07-31T02:06:46;99614.13;;;14.02;85.22
77192;BME280;66172;48.526;8.078;2023-07-31T02:09:12;99612.25;;;14.07;84.95
77192;BME280;66172;48.526;8.078;2023-07-31T02:11:38;99613.22;;;14.14;84.59
77192;BME280;66172;48.526;8.078;2023-07-31T02:14:04;99610.00;;;13.93;85.11
77192;BME280;66172;48.526;8.078;2023-07-31T02:16:29;99612.03;;;13.96;85.31
77192;BME280;66172;48.526;8.078;2023-07-31T02:18:55;99611.72;;;14.01;84.79
77192;BME280;66172;48.526;8.078;2023-07-31T02:21:21;99606.56;;;13.96;85.06
77192;BME280;66172;48.526;8.078;2023-07-31T02:23:47;99609.00;;;14.01;83.94
77192;BME280;66172;48.526;8.078;2023-07-31T02:26:13;99600.38;;;13.99;84.30
77192;BME280;66172;48.526;8.078;2023-07-31T02:28:39;99599.50;;;13.95;84.44
77192;BME280;66172;48.526;8.078;2023-07-31T02:31:08;99594.59;;;13.85;84.90
77192;BME280;66172;48.526;8.078;2023-07-31T02:33:34;99594.41;;;13.78;85.61
77192;BME280;66172;48.526;8.078;2023-07-31T02:36:00;99596.75;;;13.95;84.57
77192;BME280;66172;48.526;8.078;2023-07-31T02:38:26;99590.56;;;13.63;86.27
77192;BME280;66172;48.526;8.078;2023-07-31T02:40:52;99598.22;;;13.73;85.63
77192;BME280;66172;48.526;8.078;2023-07-31T02:43:18;99590.38;;;13.72;85.83
77192;BME280;66172;48.526;8.078;2023-07-31T02:45:44;99595.59;;;13.61;86.28
77192;BME280;66172;48.526;8.078;2023-07-31T02:48:09;99592.50;;;13.63;86.09
77192;BME280;66172;48.526;8.078;2023-07-31T02:50:35;99595.16;;;13.94;84.18
77192;BME280;66172;48.526;8.078;2023-07-31T02:53:01;99597.69;;;13.68;85.73
77192;BME280;66172;48.526;8.078;2023-07-31T02:55:27;99590.25;;;13.84;84.47
77192;BME280;66172;48.526;8.078;2023-07-31T02:57:53;99589.94;;;14.05;83.69
77192;BME280;66172;48.526;8.078;2023-07-31T03:00:19;99597.22;;;13.81;84.46
77192;BME280;66172;48.526;8.078;2023-07-31T03:02:45;99603.66;;;13.89;84.19
77192;BME280;66172;48.526;8.078;2023-07-31T03:05:11;99588.56;;;13.79;84.57
77192;BME280;66172;48.526;8.078;2023-07-31T03:07:36;99592.31;;;13.56;85.91
77192;BME280;66172;48.526;8.078;2023-07-31T03:10:02;99603.16;;;13.52;86.55
77192;BME280;66172;48.526;8.078;2023-07-31T03:12:28;99606.25;;;13.35;87.93
77192;BME280;66172;48.526;8.078;2023-07-31T03:14:54;99607.50;;;13.37;87.68
77192;BME280;66172;48.526;8.078;2023-07-31T03:17:20;99607.31;;;13.30;88.21
77192;BME280;66172;48.526;8.078;2023-07-31T03:19:46;99605.66;;;13.26;88.58
77192;BME280;66172;48.526;8.078;2023-07-31T03:22:12;99602.50;;;13.39;88.13
77192;BME280;66172;48.526;8.078;2023-07-31T03:24:38;99596.63;;;13.72;86.24
77192;BME280;66172;48.526;8.078;2023-07-31T03:27:04;99604.84;;;13.57;86.55
77192;BME280;66172;48.526;8.078;2023-07-31T03:29:30;99605.38;;;13.62;86.47
77192;BME280;66172;48.526;8.078;2023-07-31T03:31:56;99597.34;;;13.69;86.21
77192;BME280;66172;48.526;8.078;2023-07-31T03:34:22;99598.75;;;13.63;86.46
77192;BME280;66172;48.526;8.078;2023-07-31T03:36:48;99592.31;;;13.71;85.77
77192;BME280;66172;48.526;8.078;2023-07-31T03:39:14;99604.47;;;13.58;86.34
77192;BME280;66172;48.526;8.078;2023-07-31T03:41:39;99602.00;;;13.69;86.26
77192;BME280;66172;48.526;8.078;2023-07-31T03:44:05;99605.03;;;13.48;87.05
77192;BME280;66172;48.526;8.078;2023-07-31T03:46:31;99603.09;;;13.33;88.51
77192;BME280;66172;48.526;8.078;2023-07-31T03:48:57;99607.03;;;13.51;87.53
77192;BME280;66172;48.526;8.078;2023-07-31T03:51:23;99608.56;;;13.48;87.69
77192;BME280;66172;48.526;8.078;2023-07-31T03:53:49;99607.50;;;13.53;87.31
77192;BME280;66172;48.526;8.078;2023-07-31T03:56:15;99610.31;;;13.57;86.82
77192;BME280;66172;48.526;8.078;2023-07-31T03:58:41;99600.94;;;13.73;85.56
77192;BME280;66172;48.526;8.078;2023-07-31T04:01:06;99617.78;;;13.75;85.23
77192;BME280;66172;48.526;8.078;2023-07-31T04:03:32;99603.22;;;13.87;84.52
77192;BME280;66172;48.526;8.078;2023-07-31T04:05:58;99607.38;;;13.65;85.86
77192;BME280;66172;48.526;8.078;2023-07-31T04:08:24;99600.16;;;13.73;85.83
77192;BME280;66172;48.526;8.078;2023-07-31T04:10:50;99597.78;;;13.71;85.78
77192;BME280;66172;48.526;8.078;2023-07-31T04:13:16;99596.31;;;13.42;87.57
77192;BME280;66172;48.526;8.078;2023-07-31T04:15:42;99602.75;;;13.50;87.17
77192;BME280;66172;48.526;8.078;2023-07-31T04:18:08;99596.19;;;13.55;87.15
77192;BME280;66172;48.526;8.078;2023-07-31T04:20:34;99594.34;;;13.74;86.04
77192;BME280;66172;48.526;8.078;2023-07-31T04:23:00;99603.50;;;13.82;85.44
77192;BME280;66172;48.526;8.078;2023-07-31T04:25:25;99605.53;;;14.04;84.31
77192;BME280;66172;48.526;8.078;2023-07-31T04:27:51;99608.91;;;13.97;84.65
77192;BME280;66172;48.526;8.078;2023-07-31T04:30:17;99611.81;;;14.05;84.20
77192;BME280;66172;48.526;8.078;2023-07-31T04:32:43;99599.88;;;14.13;83.53
77192;BME280;66172;48.526;8.078;2023-07-31T04:35:10;99604.56;;;14.12;83.73
77192;BME280;66172;48.526;8.078;2023-07-31T04:37:36;99601.78;;;14.28;83.31
77192;BME280;66172;48.526;8.078;2023-07-31T04:40:02;99595.59;;;14.31;82.74
77192;BME280;66172;48.526;8.078;2023-07-31T04:42:28;99593.13;;;14.26;83.01
77192;BME280;66172;48.526;8.078;2023-07-31T04:44:54;99592.19;;;14.18;83.45
77192;BME280;66172;48.526;8.078;2023-07-31T04:47:19;99587.97;;;14.40;82.31
77192;BME280;66172;48.526;8.078;2023-07-31T04:49:45;99588.34;;;14.38;82.17
77192;BME280;66172;48.526;8.078;2023-07-31T04:52:11;99583.84;;;14.30;82.51
77192;BME280;66172;48.526;8.078;2023-07-31T04:54:37;99578.72;;;14.29;82.28
77192;BME280;66172;48.526;8.078;2023-07-31T04:57:03;99585.53;;;14.35;81.73
77192;BME280;66172;48.526;8.078;2023-07-31T04:59:29;99585.97;;;14.37;81.95
77192;BME280;66172;48.526;8.078;2023-07-31T05:01:55;99573.72;;;14.50;81.56
77192;BME280;66172;48.526;8.078;2023-07-31T05:04:21;99582.78;;;14.54;81.42
77192;BME280;66172;48.526;8.078;2023-07-31T05:06:47;99582.44;;;14.56;81.59
77192;BME280;66172;48.526;8.078;2023-07-31T05:09:13;99584.13;;;14.64;81.28
77192;BME280;66172;48.526;8.078;2023-07-31T05:11:39;99594.47;;;14.70;80.96
77192;BME280;66172;48.526;8.078;2023-07-31T05:14:06;99593.72;;;14.73;80.79
77192;BME280;66172;48.526;8.078;2023-07-31T05:16:32;99594.38;;;14.67;81.46
77192;BME280;66172;48.526;8.078;2023-07-31T05:18:57;99600.19;;;14.84;80.43
77192;BME280;66172;48.526;8.078;2023-07-31T05:21:23;99590.00;;;14.62;81.85
77192;BME280;66172;48.526;8.078;2023-07-31T05:23:49;99593.50;;;14.43;82.73
77192;BME280;66172;48.526;8.078;2023-07-31T05:26:15;99588.78;;;14.60;82.45
77192;BME280;66172;48.526;8.078;2023-07-31T05:28:41;99587.47;;;14.54;82.71
77192;BME280;66172;48.526;8.078;2023-07-31T05:31:07;99596.34;;;14.66;82.39
77192;BME280;66172;48.526;8.078;2023-07-31T05:33:33;99597.13;;;14.67;82.56
77192;BME280;66172;48.526;8.078;2023-07-31T05:35:59;99579.63;;;14.52;83.36
77192;BME280;66172;48.526;8.078;2023-07-31T05:38:25;99583.22;;;14.56;82.75
77192;BME280;66172;48.526;8.078;2023-07-31T05:40:51;99591.06;;;14.77;82.05
77192;BME280;66172;48.526;8.078;2023-07-31T05:43:17;99587.13;;;14.97;80.74
77192;BME280;66172;48.526;8.078;2023-07-31T05:45:43;99588.97;;;15.12;78.86
77192;BME280;66172;48.526;8.078;2023-07-31T05:48:09;99580.50;;;15.21;79.78
77192;BME280;66172;48.526;8.078;2023-07-31T05:50:34;99583.13;;;15.36;77.96
77192;BME280;66172;48.526;8.078;2023-07-31T05:53:00;99579.09;;;15.53;76.73
77192;BME280;66172;48.526;8.078;2023-07-31T05:55:26;99576.88;;;15.62;76.34
77192;BME280;66172;48.526;8.078;2023-07-31T05:57:53;99560.78;;;15.87;74.70
77192;BME280;66172;48.526;8.078;2023-07-31T06:00:19;99551.75;;;15.83;75.44
77192;BME280;66172;48.526;8.078;2023-07-31T06:02:44;99562.91;;;15.97;75.31
77192;BME280;66172;48.526;8.078;2023-07-31T06:05:10;99565.28;;;15.98;75.55
77192;BME280;66172;48.526;8.078;2023-07-31T06:07:36;99553.03;;;15.92;76.02
77192;BME280;66172;48.526;8.078;2023-07-31T06:10:02;99555.28;;;16.13;74.55
77192;BME280;66172;48.526;8.078;2023-07-31T06:12:31;99555.81;;;16.26;74.00
77192;BME280;66172;48.526;8.078;2023-07-31T06:14:57;99562.84;;;16.23;74.36
77192;BME280;66172;48.526;8.078;2023-07-31T06:17:23;99546.69;;;16.48;73.03
77192;BME280;66172;48.526;8.078;2023-07-31T06:19:49;99537.03;;;16.61;72.59
77192;BME280;66172;48.526;8.078;2023-07-31T06:22:15;99536.69;;;16.63;73.63
77192;BME280;66172;48.526;8.078;2023-07-31T06:24:41;99538.66;;;16.66;72.30
77192;BME280;66172;48.526;8.078;2023-07-31T06:27:07;99542.53;;;16.98;71.27
77192;BME280;66172;48.526;8.078;2023-07-31T06:29:33;99548.50;;;16.67;71.59
77192;BME280;66172;48.526;8.078;2023-07-31T06:31:59;99558.25;;;17.01;70.49
77192;BME280;66172;48.526;8.078;2023-07-31T06:34:24;99556.69;;;17.04;70.05
77192;BME280;66172;48.526;8.078;2023-07-31T06:36:50;99560.41;;;17.22;69.09
77192;BME280;66172;48.526;8.078;2023-07-31T06:39:16;99557.69;;;17.25;68.83
77192;BME280;66172;48.526;8.078;2023-07-31T06:41:43;99558.94;;;17.38;67.80
77192;BME280;66172;48.526;8.078;2023-07-31T06:44:10;99559.44;;;17.47;66.98
77192;BME280;66172;48.526;8.078;2023-07-31T06:46:36;99561.53;;;17.61;65.23
77192;BME280;66172;48.526;8.078;2023-07-31T06:49:02;99564.38;;;17.75;65.13
77192;BME280;66172;48.526;8.078;2023-07-31T06:51:28;99575.03;;;17.84;64.95
77192;BME280;66172;48.526;8.078;2023-07-31T06:53:54;99565.22;;;17.83;65.10
77192;BME280;66172;48.526;8.078;2023-07-31T06:56:20;99564.16;;;18.09;65.23
77192;BME280;66172;48.526;8.078;2023-07-31T06:58:46;99561.50;;;18.30;64.47
77192;BME280;66172;48.526;8.078;2023-07-31T07:01:12;99561.16;;;18.38;63.52
77192;BME280;66172;48.526;8.078;2023-07-31T07:03:38;99563.84;;;18.24;63.37
77192;BME280;66172;48.526;8.078;2023-07-31T07:06:04;99559.53;;;18.27;63.77
77192;BME280;66172;48.526;8.078;2023-07-31T07:08:30;99558.31;;;18.17;63.34
77192;BME280;66172;48.526;8.078;2023-07-31T07:10:56;99552.78;;;18.14;63.08
77192;BME280;66172;48.526;8.078;2023-07-31T07:13:22;99543.78;;;18.24;63.41
77192;BME280;66172;48.526;8.078;2023-07-31T07:15:53;99550.13;;;18.31;62.05
77192;BME280;66172;48.526;8.078;2023-07-31T07:18:18;99550.16;;;18.38;62.91
77192;BME280;66172;48.526;8.078;2023-07-31T07:20:50;99547.13;;;18.61;60.88
77192;BME280;66172;48.526;8.078;2023-07-31T07:23:16;99539.31;;;19.09;61.38
77192;BME280;66172;48.526;8.078;2023-07-31T07:25:42;99541.28;;;19.69;59.48
77192;BME280;66172;48.526;8.078;2023-07-31T07:28:09;99540.28;;;20.42;56.08
77192;BME280;66172;48.526;8.078;2023-07-31T07:30:35;99543.16;;;20.90;54.53
77192;BME280;66172;48.526;8.078;2023-07-31T07:33:01;99547.28;;;20.65;54.42
77192;BME280;66172;48.526;8.078;2023-07-31T07:35:27;99544.66;;;20.26;55.17
77192;BME280;66172;48.526;8.078;2023-07-31T07:37:53;99535.97;;;20.31;54.50
77192;BME280;66172;48.526;8.078;2023-07-31T07:40:20;99529.16;;;21.15;52.59
77192;BME280;66172;48.526;8.078;2023-07-31T07:42:46;99522.56;;;22.25;51.09
77192;BME280;66172;48.526;8.078;2023-07-31T07:45:12;99527.41;;;21.39;52.44
77192;BME280;66172;48.526;8.078;2023-07-31T07:47:40;99530.03;;;21.94;51.53
77192;BME280;66172;48.526;8.078;2023-07-31T07:50:07;99518.91;;;22.62;50.26
77192;BME280;66172;48.526;8.078;2023-07-31T07:52:33;99520.56;;;22.86;49.32
77192;BME280;66172;48.526;8.078;2023-07-31T07:54:59;99520.25;;;22.50;49.31
77192;BME280;66172;48.526;8.078;2023-07-31T07:57:26;99515.94;;;22.46;50.23
77192;BME280;66172;48.526;8.078;2023-07-31T07:59:52;99513.59;;;23.24;47.19
77192;BME280;66172;48.526;8.078;2023-07-31T08:02:18;99511.13;;;23.07;47.89
77192;BME280;66172;48.526;8.078;2023-07-31T08:04:44;99511.31;;;22.66;48.50
77192;BME280;66172;48.526;8.078;2023-07-31T08:07:11;99519.63;;;23.19;47.02
77192;BME280;66172;48.526;8.078;2023-07-31T08:09:38;99514.00;;;23.50;45.97
77192;BME280;66172;48.526;8.078;2023-07-31T08:12:05;99521.03;;;23.77;45.61
77192;BME280;66172;48.526;8.078;2023-07-31T08:14:31;99531.84;;;22.72;46.42
77192;BME280;66172;48.526;8.078;2023-07-31T08:16:57;99536.34;;;22.89;47.11
77192;BME280;66172;48.526;8.078;2023-07-31T08:19:22;99537.84;;;22.03;48.77
77192;BME280;66172;48.526;8.078;2023-07-31T08:21:48;99524.88;;;22.30;49.69
77192;BME280;66172;48.526;8.078;2023-07-31T08:24:14;99520.97;;;22.24;48.94
77192;BME280;66172;48.526;8.078;2023-07-31T08:26:40;99533.22;;;22.57;49.27
77192;BME280;66172;48.526;8.078;2023-07-31T08:29:06;99519.25;;;22.64;47.31
77192;BME280;66172;48.526;8.078;2023-07-31T08:31:32;99512.00;;;22.16;48.69
77192;BME280;66172;48.526;8.078;2023-07-31T08:33:58;99519.03;;;22.21;49.22
77192;BME280;66172;48.526;8.078;2023-07-31T08:36:24;99522.84;;;22.00;49.54
77192;BME280;66172;48.526;8.078;2023-07-31T08:38:50;99523.63;;;21.63;50.10
77192;BME280;66172;48.526;8.078;2023-07-31T08:41:16;99521.84;;;21.42;51.20
77192;BME280;66172;48.526;8.078;2023-07-31T08:43:49;99515.94;;;21.37;50.99
77192;BME280;66172;48.526;8.078;2023-07-31T08:46:16;99514.41;;;21.73;50.73
77192;BME280;66172;48.526;8.078;2023-07-31T08:48:43;99503.00;;;21.68;50.04
77192;BME280;66172;48.526;8.078;2023-07-31T08:51:09;99490.63;;;22.13;49.57
77192;BME280;66172;48.526;8.078;2023-07-31T08:53:35;99485.19;;;22.67;48.08
77192;BME280;66172;48.526;8.078;2023-07-31T08:56:02;99484.00;;;23.41;46.32
77192;BME280;66172;48.526;8.078;2023-07-31T08:58:31;99484.53;;;23.56;46.72
77192;BME280;66172;48.526;8.078;2023-07-31T09:01:01;99480.16;;;22.85;47.26
77192;BME280;66172;48.526;8.078;2023-07-31T09:03:27;99481.56;;;22.97;46.65
77192;BME280;66172;48.526;8.078;2023-07-31T09:05:55;99472.09;;;22.67;47.41
77192;BME280;66172;48.526;8.078;2023-07-31T09:08:22;99471.69;;;23.42;46.97
77192;BME280;66172;48.526;8.078;2023-07-31T09:10:48;99473.00;;;23.11;46.84
77192;BME280;66172;48.526;8.078;2023-07-31T09:13:16;99469.34;;;22.90;47.12
77192;BME280;66172;48.526;8.078;2023-07-31T09:15:45;99464.00;;;23.26;46.68
77192;BME280;66172;48.526;8.078;2023-07-31T09:18:12;99462.41;;;23.92;45.10
77192;BME280;66172;48.526;8.078;2023-07-31T09:20:40;99467.56;;;24.49;43.97
77192;BME280;66172;48.526;8.078;2023-07-31T09:23:13;99449.19;;;25.03;42.67
77192;BME280;66172;48.526;8.078;2023-07-31T09:25:43;99456.78;;;25.64;41.59
77192;BME280;66172;48.526;8.078;2023-07-31T09:28:10;99449.94;;;25.94;40.13
77192;BME280;66172;48.526;8.078;2023-07-31T09:30:48;99444.94;;;27.74;36.66
77192;BME280;66172;48.526;8.078;2023-07-31T09:33:14;99430.25;;;29.43;34.77
77192;BME280;66172;48.526;8.078;2023-07-31T09:35:40;99439.22;;;30.29;31.95
77192;BME280;66172;48.526;8.078;2023-07-31T09:38:11;99423.19;;;29.02;32.67
77192;BME280;66172;48.526;8.078;2023-07-31T09:40:55;99436.88;;;30.69;31.33
77192;BME280;66172;48.526;8.078;2023-07-31T09:43:24;99431.75;;;32.15;29.37
77192;BME280;66172;48.526;8.078;2023-07-31T09:45:55;99419.63;;;30.10;30.37
77192;BME280;66172;48.526;8.078;2023-07-31T09:48:23;99409.16;;;28.93;33.34
77192;BME280;66172;48.526;8.078;2023-07-31T09:50:51;99402.75;;;28.74;33.03
77192;BME280;66172;48.526;8.078;2023-07-31T09:53:17;99416.38;;;28.63;34.78
77192;BME280;66172;48.526;8.078;2023-07-31T09:55:43;99418.25;;;28.26;35.30
77192;BME280;66172;48.526;8.078;2023-07-31T09:58:11;99395.94;;;27.83;35.61
77192;BME280;66172;48.526;8.078;2023-07-31T10:00:37;99402.28;;;28.36;34.24
77192;BME280;66172;48.526;8.078;2023-07-31T10:03:08;99400.47;;;28.11;35.38
77192;BME280;66172;48.526;8.078;2023-07-31T10:05:36;99395.56;;;27.37;35.97
77192;BME280;66172;48.526;8.078;2023-07-31T10:08:03;99394.75;;;27.15;36.62
77192;BME280;66172;48.526;8.078;2023-07-31T10:10:29;99390.16;;;27.43;36.59
77192;BME280;66172;48.526;8.078;2023-07-31T10:12:56;99400.00;;;28.12;35.03
77192;BME280;66172;48.526;8.078;2023-07-31T10:15:23;99395.22;;;29.38;34.23
77192;BME280;66172;48.526;8.078;2023-07-31T10:17:51;99401.44;;;29.15;34.00
77192;BME280;66172;48.526;8.078;2023-07-31T10:20:17;99399.31;;;28.70;33.72
77192;BME280;66172;48.526;8.078;2023-07-31T10:22:44;99396.56;;;28.48;35.34
77192;BME280;66172;48.526;8.078;2023-07-31T10:25:11;99400.75;;;28.93;35.81
77192;BME280;66172;48.526;8.078;2023-07-31T10:27:41;99389.56;;;28.44;35.04
77192;BME280;66172;48.526;8.078;2023-07-31T10:30:09;99413.59;;;27.23;35.64
77192;BME280;66172;48.526;8.078;2023-07-31T10:32:39;99406.34;;;27.26;35.03
77192;BME280;66172;48.526;8.078;2023-07-31T10:35:07;99406.78;;;26.65;36.67
77192;BME280;66172;48.526;8.078;2023-07-31T10:37:41;99414.09;;;26.08;40.84
77192;BME280;66172;48.526;8.078;2023-07-31T10:40:11;99413.28;;;25.54;42.81
77192;BME280;66172;48.526;8.078;2023-07-31T10:42:56;99410.94;;;25.52;41.86
77192;BME280;66172;48.526;8.078;2023-07-31T10:45:36;99410.59;;;25.34;42.09
77192;BME280;66172;48.526;8.078;2023-07-31T10:48:04;99426.16;;;25.48;41.51
77192;BME280;66172;48.526;8.078;2023-07-31T10:50:32;99432.75;;;24.93;43.38
77192;BME280;66172;48.526;8.078;2023-07-31T10:52:58;99421.03;;;24.85;41.75
77192;BME280;66172;48.526;8.078;2023-07-31T10:55:42;99420.41;;;25.10;42.66
77192;BME280;66172;48.526;8.078;2023-07-31T10:58:11;99421.03;;;25.01;41.39
77192;BME280;66172;48.526;8.078;2023-07-31T11:00:42;99430.41;;;25.07;40.52
77192;BME280;66172;48.526;8.078;2023-07-31T11:05:41;99410.34;;;24.31;44.12
77192;BME280;66172;48.526;8.078;2023-07-31T11:08:16;99395.53;;;23.82;43.64
77192;BME280;66172;48.526;8.078;2023-07-31T11:10:44;99390.34;;;23.84;44.52
77192;BME280;66172;48.526;8.078;2023-07-31T11:13:10;99393.34;;;24.29;46.15
77192;BME280;66172;48.526;8.078;2023-07-31T11:15:36;99396.44;;;24.83;45.24
77192;BME280;66172;48.526;8.078;2023-07-31T11:18:02;99394.69;;;25.34;46.05
77192;BME280;66172;48.526;8.078;2023-07-31T11:20:35;99376.41;;;26.16;42.96
77192;BME280;66172;48.526;8.078;2023-07-31T11:23:02;99375.81;;;26.97;39.56
77192;BME280;66172;48.526;8.078;2023-07-31T11:25:30;99374.44;;;26.42;40.88
77192;BME280;66172;48.526;8.078;2023-07-31T11:28:02;99380.22;;;26.10;39.83
77192;BME280;66172;48.526;8.078;2023-07-31T11:30:28;99379.25;;;26.42;39.99
77192;BME280;66172;48.526;8.078;2023-07-31T11:32:55;99375.75;;;28.49;38.07
77192;BME280;66172;48.526;8.078;2023-07-31T11:35:21;99380.72;;;28.94;35.56
77192;BME280;66172;48.526;8.078;2023-07-31T11:37:48;99384.91;;;29.81;33.59
77192;BME280;66172;48.526;8.078;2023-07-31T11:40:14;99374.78;;;30.43;31.72
77192;BME280;66172;48.526;8.078;2023-07-31T11:42:40;99365.84;;;30.54;32.04
77192;BME280;66172;48.526;8.078;2023-07-31T11:45:07;99360.81;;;31.29;31.02
77192;BME280;66172;48.526;8.078;2023-07-31T11:47:36;99347.50;;;30.91;31.53
77192;BME280;66172;48.526;8.078;2023-07-31T11:50:03;99345.34;;;31.92;29.52
77192;BME280;66172;48.526;8.078;2023-07-31T11:52:37;99328.09;;;31.85;30.37
77192;BME280;66172;48.526;8.078;2023-07-31T11:55:04;99316.50;;;30.62;33.19
77192;BME280;66172;48.526;8.078;2023-07-31T11:57:32;99330.41;;;29.72;32.70
77192;BME280;66172;48.526;8.078;2023-07-31T11:59:58;99309.13;;;28.75;34.82
77192;BME280;66172;48.526;8.078;2023-07-31T12:02:24;99309.09;;;28.66;35.43
77192;BME280;66172;48.526;8.078;2023-07-31T12:04:50;99312.22;;;28.68;35.80
77192;BME280;66172;48.526;8.078;2023-07-31T12:07:16;99313.31;;;27.91;36.60
77192;BME280;66172;48.526;8.078;2023-07-31T12:09:55;99315.38;;;28.21;36.02
77192;BME280;66172;48.526;8.078;2023-07-31T12:12:25;99310.38;;;27.85;37.02
77192;BME280;66172;48.526;8.078;2023-07-31T12:14:51;99307.16;;;27.65;37.66
77192;BME280;66172;48.526;8.078;2023-07-31T12:17:19;99301.38;;;27.59;37.08
77192;BME280;66172;48.526;8.078;2023-07-31T12:19:48;99306.78;;;27.85;37.92
77192;BME280;66172;48.526;8.078;2023-07-31T12:22:15;99301.13;;;28.46;36.37
77192;BME280;66172;48.526;8.078;2023-07-31T12:24:43;99308.50;;;27.82;37.67
77192;BME280;66172;48.526;8.078;2023-07-31T12:27:15;99304.50;;;26.37;39.32
77192;BME280;66172;48.526;8.078;2023-07-31T12:29:42;99309.66;;;27.07;38.71
77192;BME280;66172;48.526;8.078;2023-07-31T12:32:24;99297.91;;;26.18;40.09
77192;BME280;66172;48.526;8.078;2023-07-31T12:34:51;99307.06;;;26.78;39.98
77192;BME280;66172;48.526;8.078;2023-07-31T12:37:17;99304.63;;;26.80;40.23
77192;BME280;66172;48.526;8.078;2023-07-31T12:39:43;99298.56;;;26.94;38.64
77192;BME280;66172;48.526;8.078;2023-07-31T12:42:09;99287.31;;;26.25;39.39
77192;BME280;66172;48.526;8.078;2023-07-31T12:44:35;99295.00;;;25.71;40.54
77192;BME280;66172;48.526;8.078;2023-07-31T12:47:00;99286.31;;;26.32;39.28
77192;BME280;66172;48.526;8.078;2023-07-31T12:49:26;99284.06;;;25.64;41.76
77192;BME280;66172;48.526;8.078;2023-07-31T12:51:52;99288.00;;;25.92;40.48
77192;BME280;66172;48.526;8.078;2023-07-31T12:54:19;99269.13;;;26.08;40.46
77192;BME280;66172;48.526;8.078;2023-07-31T12:56:45;99282.81;;;26.53;39.97
77192;BME280;66172;48.526;8.078;2023-07-31T12:59:11;99289.97;;;26.04;40.40
77192;BME280;66172;48.526;8.078;2023-07-31T13:01:37;99267.69;;;26.29;40.63
77192;BME280;66172;48.526;8.078;2023-07-31T13:04:03;99269.22;;;26.43;40.24
77192;BME280;66172;48.526;8.078;2023-07-31T13:06:29;99265.09;;;26.81;39.91
77192;BME280;66172;48.526;8.078;2023-07-31T13:08:55;99258.94;;;26.52;40.11